createdAt,value
2022-12-11T00:01:01.408Z,31.00
2022-12-11T00:02:13.131Z,29.90
2022-12-11T00:03:18.904Z,28.23
2022-12-11T00:04:25.481Z,27.10
2022-12-11T00:05:28.629Z,23.27
2022-12-11T00:06:37.456Z,22.80
2022-12-11T00:07:43.943Z,23.33
2022-12-11T00:08:53.999Z,25.77
2022-12-11T00:09:57.436Z,31.25
2022-12-11T00:11:03.513Z,28.17
2022-12-11T00:12:09.655Z,29.90
2022-12-11T00:13:17.830Z,29.67
2022-12-11T00:14:21.107Z,27.50
2022-12-11T00:15:26.969Z,28.98
2022-12-11T00:16:30.712Z,29.77
2022-12-11T00:17:39.867Z,31.02
2022-12-11T00:18:46.596Z,36.63
2022-12-11T00:19:52.491Z,34.13
2022-12-11T00:20:56.089Z,32.83
2022-12-11T00:22:02.189Z,28.75
2022-12-11T00:23:08.007Z,28.25
2022-12-11T00:24:14.285Z,29.95
2022-12-11T00:25:17.436Z,31.20
2022-12-11T00:26:23.179Z,29.60
2022-12-11T00:27:28.654Z,32.13
2022-12-11T00:28:37.459Z,28.70
2022-12-11T00:29:41.259Z,28.10
2022-12-11T00:30:47.204Z,27.90
2022-12-11T00:31:50.547Z,26.30
2022-12-11T00:33:01.961Z,26.35
2022-12-11T00:34:05.422Z,27.13
2022-12-11T00:35:13.962Z,28.92
2022-12-11T00:36:19.362Z,27.67
2022-12-11T00:37:25.374Z,25.00
2022-12-11T00:38:29.043Z,23.92
2022-12-11T00:39:34.989Z,24.10
2022-12-11T00:40:38.548Z,27.55
2022-12-11T00:41:44.289Z,24.85
2022-12-11T00:42:47.496Z,25.92
2022-12-11T00:43:58.064Z,25.95
2022-12-11T00:45:03.345Z,23.88
2022-12-11T00:46:08.813Z,23.98
2022-12-11T00:47:13.847Z,25.60
2022-12-11T00:48:18.878Z,25.67
2022-12-11T00:49:23.714Z,24.02
2022-12-11T00:50:26.070Z,26.25
2022-12-11T00:51:31.081Z,26.88
2022-12-11T00:52:33.589Z,24.60
2022-12-11T00:53:38.402Z,22.13
2022-12-11T00:54:40.815Z,20.27
2022-12-11T00:55:46.452Z,19.98
2022-12-11T00:56:51.424Z,22.17
2022-12-11T00:57:54.041Z,22.48
2022-12-11T00:58:59.542Z,22.60
2022-12-11T01:00:01.846Z,22.25
2022-12-11T01:01:09.995Z,21.45
2022-12-11T01:02:12.615Z,21.33
2022-12-11T01:03:20.667Z,20.20
2022-12-11T01:04:23.438Z,21.00
2022-12-11T01:05:28.472Z,21.60
2022-12-11T01:06:30.682Z,22.27
2022-12-11T01:07:35.604Z,22.08
2022-12-11T01:08:38.842Z,21.52
2022-12-11T01:09:56.341Z,21.75
2022-12-11T01:11:05.498Z,21.33
2022-12-11T01:12:07.821Z,22.02
2022-12-11T01:13:14.384Z,22.20
2022-12-11T01:14:16.685Z,22.48
2022-12-11T01:15:23.114Z,22.83
2022-12-11T01:16:28.019Z,21.45
2022-12-11T01:17:30.272Z,22.38
2022-12-11T01:18:38.068Z,22.50
2022-12-11T01:19:40.474Z,21.67
2022-12-11T01:20:46.434Z,22.17
2022-12-11T01:21:48.706Z,21.83
2022-12-11T01:22:57.990Z,20.70
2022-12-11T01:24:00.361Z,23.05
2022-12-11T01:25:05.793Z,23.23
2022-12-11T01:26:09.735Z,25.73
2022-12-11T01:27:15.042Z,24.52
2022-12-11T01:28:17.536Z,25.25
2022-12-11T01:29:22.392Z,27.58
2022-12-11T01:30:26.059Z,27.90
2022-12-11T01:31:31.250Z,27.27
2022-12-11T01:32:34.274Z,27.20
2022-12-11T01:33:41.979Z,26.38
2022-12-11T01:34:44.383Z,29.13
2022-12-11T01:35:49.233Z,29.65
2022-12-11T01:36:53.114Z,28.67
2022-12-11T01:37:58.062Z,27.20
2022-12-11T01:39:00.320Z,27.70
2022-12-11T01:40:06.066Z,26.92
2022-12-11T01:41:09.078Z,26.60
2022-12-11T01:42:20.019Z,23.55
2022-12-11T01:43:22.254Z,23.42
2022-12-11T01:44:57.046Z,25.25
2022-12-11T01:46:02.247Z,19.52
2022-12-11T01:47:04.597Z,17.10
2022-12-11T01:48:13.113Z,17.10
2022-12-11T01:49:20.690Z,17.98
2022-12-11T01:50:26.550Z,19.90
2022-12-11T01:51:34.412Z,18.63
2022-12-11T01:52:37.131Z,18.85
2022-12-11T01:53:46.405Z,19.88
2022-12-11T01:54:49.964Z,18.27
2022-12-11T01:55:58.297Z,18.38
2022-12-11T01:57:07.219Z,20.13
2022-12-11T01:58:12.321Z,19.20
2022-12-11T01:59:20.701Z,19.25
2022-12-11T02:00:23.097Z,21.08
2022-12-11T02:01:34.974Z,20.38
2022-12-11T02:02:37.412Z,20.83
2022-12-11T02:03:42.801Z,20.67
2022-12-11T02:04:48.711Z,19.58
2022-12-11T02:05:53.561Z,20.92
2022-12-11T02:06:56.412Z,20.60
2022-12-11T02:08:03.894Z,20.95
2022-12-11T02:09:09.776Z,22.23
2022-12-11T02:10:15.641Z,21.05
2022-12-11T02:11:23.640Z,21.27
2022-12-11T02:12:35.075Z,21.65
2022-12-11T02:13:45.218Z,18.13
2022-12-11T02:14:57.422Z,19.20
2022-12-11T02:16:06.366Z,18.30
2022-12-11T02:17:18.203Z,16.35
2022-12-11T02:18:33.560Z,18.08
2022-12-11T02:19:52.419Z,17.70
2022-12-11T02:21:05.760Z,16.75
2022-12-11T02:22:13.450Z,14.00
2022-12-11T02:23:45.965Z,14.90
2022-12-11T02:25:03.967Z,14.32
2022-12-11T02:26:21.999Z,14.98
2022-12-11T02:27:30.980Z,14.15
2022-12-11T02:28:42.723Z,15.35
2022-12-11T02:29:51.213Z,13.63
2022-12-11T02:31:00.550Z,13.02
2022-12-11T02:32:06.987Z,12.35
2022-12-11T02:33:14.274Z,14.00
2022-12-11T02:34:23.383Z,14.10
2022-12-11T02:35:33.134Z,14.90
2022-12-11T02:36:40.024Z,16.60
2022-12-11T02:37:48.111Z,18.23
2022-12-11T02:38:53.620Z,15.63
2022-12-11T02:40:00.022Z,14.30
2022-12-11T02:41:07.469Z,16.35
2022-12-11T02:42:11.579Z,14.70
2022-12-11T02:43:20.120Z,17.65
2022-12-11T02:44:28.440Z,16.63
2022-12-11T02:45:35.026Z,16.55
2022-12-11T02:46:38.315Z,17.75
2022-12-11T02:47:44.572Z,17.60
2022-12-11T02:48:50.301Z,17.88
2022-12-11T02:49:56.857Z,14.77
2022-12-11T02:51:00.455Z,13.57
2022-12-11T02:52:08.135Z,12.35
2022-12-11T02:53:12.930Z,13.32
2022-12-11T02:54:21.108Z,13.77
2022-12-11T02:55:28.998Z,13.18
2022-12-11T02:56:36.467Z,12.55
2022-12-11T02:57:46.547Z,14.02
2022-12-11T02:58:58.512Z,11.68
2022-12-11T03:00:09.161Z,11.90
2022-12-11T03:01:11.637Z,11.40
2022-12-11T03:02:19.537Z,12.93
2022-12-11T03:03:22.651Z,12.52
2022-12-11T03:04:27.698Z,12.10
2022-12-11T03:05:32.847Z,12.27
2022-12-11T03:06:40.136Z,12.20
2022-12-11T03:07:47.691Z,13.30
2022-12-11T03:08:52.107Z,11.98
2022-12-11T03:09:57.354Z,12.18
2022-12-11T03:10:59.809Z,11.75
2022-12-11T03:12:05.164Z,11.32
2022-12-11T03:13:10.133Z,12.68
2022-12-11T03:14:13.040Z,13.50
2022-12-11T03:15:23.392Z,13.88
2022-12-11T03:16:34.763Z,14.32
2022-12-11T03:17:47.365Z,15.40
2022-12-11T03:18:59.367Z,13.55
2022-12-11T03:20:10.377Z,14.60
2022-12-11T03:21:19.598Z,13.48
2022-12-11T03:22:29.203Z,14.57
2022-12-11T03:23:41.598Z,13.40
2022-12-11T03:24:55.289Z,12.85
2022-12-11T03:26:03.823Z,13.10
2022-12-11T03:27:15.926Z,15.10
2022-12-11T03:28:23.446Z,12.98
2022-12-11T03:29:34.845Z,13.20
2022-12-11T03:30:42.450Z,15.80
2022-12-11T03:32:09.410Z,12.07
2022-12-11T03:33:29.147Z,13.68
2022-12-11T03:34:58.033Z,13.82
2022-12-11T03:36:12.325Z,13.73
2022-12-11T03:39:00.655Z,14.75
2022-12-11T03:40:12.432Z,12.50
2022-12-11T03:41:38.069Z,14.15
2022-12-11T03:42:49.053Z,14.43
2022-12-11T03:44:11.883Z,15.07
2022-12-11T03:45:54.170Z,15.55
2022-12-11T03:49:01.353Z,14.98
2022-12-11T03:50:27.484Z,16.85
2022-12-11T03:51:31.899Z,16.38
2022-12-11T03:52:43.996Z,16.17
2022-12-11T03:53:48.637Z,16.02
2022-12-11T03:54:53.932Z,17.65
2022-12-11T03:55:59.258Z,17.23
2022-12-11T03:57:07.108Z,16.90
2022-12-11T03:58:09.396Z,15.10
2022-12-11T03:59:14.655Z,15.60
2022-12-11T04:00:19.196Z,15.57
2022-12-11T04:01:24.550Z,15.45
2022-12-11T04:02:29.532Z,15.63
2022-12-11T04:03:34.815Z,14.80
2022-12-11T04:04:37.637Z,13.82
2022-12-11T04:05:42.776Z,13.77
2022-12-11T04:06:45.091Z,14.38
2022-12-11T04:07:50.264Z,13.18
2022-12-11T04:08:52.606Z,12.88
2022-12-11T04:09:57.599Z,12.65
2022-12-11T04:11:15.023Z,13.45
2022-12-11T04:12:19.880Z,14.13
2022-12-11T04:13:22.124Z,15.68
2022-12-11T04:14:39.624Z,14.07
2022-12-11T04:15:44.546Z,13.30
2022-12-11T04:16:47.223Z,13.70
2022-12-11T04:18:07.089Z,14.30
2022-12-11T04:19:25.555Z,13.10
2022-12-11T04:20:43.211Z,13.90
2022-12-11T04:22:00.458Z,13.85
2022-12-11T04:23:19.630Z,12.85
2022-12-11T04:24:24.462Z,13.57
2022-12-11T04:25:26.957Z,13.20
2022-12-11T04:26:31.825Z,13.45
2022-12-11T04:27:49.354Z,15.07
2022-12-11T04:28:54.611Z,13.93
2022-12-11T04:29:56.871Z,13.88
2022-12-11T04:31:01.825Z,13.77
2022-12-11T04:32:04.109Z,12.88
2022-12-11T04:33:11.602Z,14.43
2022-12-11T04:34:13.885Z,15.25
2022-12-11T04:35:19.595Z,17.02
2022-12-11T04:36:21.908Z,15.57
2022-12-11T04:37:34.224Z,16.27
2022-12-11T04:38:49.851Z,16.77
2022-12-11T04:40:00.679Z,15.93
2022-12-11T04:41:16.084Z,14.02
2022-12-11T04:42:33.567Z,15.45
2022-12-11T04:44:00.992Z,14.98
2022-12-11T04:45:22.622Z,13.90
2022-12-11T04:46:52.035Z,14.82
2022-12-11T04:48:10.803Z,14.13
2022-12-11T04:49:34.585Z,15.20
2022-12-11T04:50:44.299Z,13.48
2022-12-11T04:51:48.651Z,14.55
2022-12-11T04:53:02.800Z,15.40
2022-12-11T04:54:08.040Z,13.95
2022-12-11T04:55:18.663Z,14.07
2022-12-11T04:56:39.790Z,18.67
2022-12-11T04:57:56.184Z,14.80
2022-12-11T04:59:03.785Z,13.90
2022-12-11T05:00:22.527Z,15.68
2022-12-11T05:01:39.988Z,16.27
2022-12-11T05:02:50.444Z,19.63
2022-12-11T05:04:00.184Z,18.13
2022-12-11T05:05:17.394Z,15.18
2022-12-11T05:06:32.635Z,16.13
2022-12-11T05:07:56.182Z,15.82
2022-12-11T05:09:17.422Z,16.25
2022-12-11T05:10:31.898Z,16.35
2022-12-11T05:11:55.476Z,14.57
2022-12-11T05:13:02.539Z,15.30
2022-12-11T05:14:16.426Z,16.08
2022-12-11T05:15:22.659Z,17.02
2022-12-11T05:16:36.091Z,17.10
2022-12-11T05:17:52.793Z,15.55
2022-12-11T05:20:32.854Z,15.48
2022-12-11T05:21:59.021Z,17.07
2022-12-11T05:23:18.186Z,15.98
2022-12-11T05:24:51.963Z,15.73
2022-12-11T05:26:06.371Z,16.88
2022-12-11T05:27:29.506Z,24.20
2022-12-11T05:28:46.543Z,18.02
2022-12-11T05:30:06.920Z,15.70
2022-12-11T05:31:32.534Z,17.13
2022-12-11T05:32:53.697Z,16.15
2022-12-11T05:34:11.123Z,17.77
2022-12-11T05:35:37.220Z,19.40
2022-12-11T05:36:51.319Z,17.75
2022-12-11T05:38:22.910Z,14.85
2022-12-11T05:39:51.637Z,20.80
2022-12-11T05:41:10.298Z,16.50
2022-12-11T05:42:28.576Z,15.57
2022-12-11T05:43:48.128Z,17.08
2022-12-11T05:45:04.496Z,18.05
2022-12-11T05:46:13.079Z,17.38
2022-12-11T05:47:26.950Z,20.10
2022-12-11T05:48:35.182Z,17.38
2022-12-11T05:49:47.939Z,17.83
2022-12-11T05:51:16.280Z,17.67
2022-12-11T05:52:25.542Z,17.83
2022-12-11T05:53:43.323Z,17.63
2022-12-11T05:54:59.422Z,17.83
2022-12-11T05:56:12.880Z,17.75
2022-12-11T05:57:32.330Z,20.20
2022-12-11T05:58:51.998Z,18.60
2022-12-11T06:00:16.527Z,17.15
2022-12-11T06:01:41.635Z,18.63
2022-12-11T06:03:06.606Z,19.20
2022-12-11T06:04:14.275Z,19.25
2022-12-11T06:05:36.380Z,22.27
2022-12-11T06:07:02.876Z,20.13
2022-12-11T06:08:24.431Z,22.13
2022-12-11T06:09:52.309Z,24.75
2022-12-11T06:11:11.894Z,23.35
2022-12-11T06:12:47.953Z,25.98
2022-12-11T06:14:13.607Z,22.35
2022-12-11T06:15:38.801Z,22.42
2022-12-11T06:16:55.919Z,25.05
2022-12-11T06:18:12.237Z,22.80
2022-12-11T06:19:24.090Z,24.60
2022-12-11T06:22:23.393Z,23.48
2022-12-11T06:23:41.274Z,24.85
2022-12-11T06:25:15.542Z,24.42
2022-12-11T06:26:45.849Z,25.77
2022-12-11T06:27:51.292Z,25.80
2022-12-11T06:29:14.572Z,27.30
2022-12-11T06:30:38.412Z,27.88
2022-12-11T06:31:55.946Z,28.38
2022-12-11T06:33:30.485Z,31.25
2022-12-11T06:34:46.261Z,27.90
2022-12-11T06:36:24.962Z,27.98
2022-12-11T06:38:15.463Z,30.15
2022-12-11T06:39:43.292Z,29.10
2022-12-11T06:41:16.733Z,30.15
2022-12-11T06:42:32.853Z,28.95
2022-12-11T06:43:55.490Z,32.90
2022-12-11T06:45:00.822Z,34.38
2022-12-11T06:46:07.846Z,36.65
2022-12-11T06:47:10.103Z,38.47
2022-12-11T06:48:15.027Z,41.08
2022-12-11T06:49:19.865Z,40.33
2022-12-11T06:50:22.091Z,39.17
2022-12-11T06:51:27.102Z,40.05
2022-12-11T06:52:31.942Z,47.15
2022-12-11T06:53:36.989Z,37.80
2022-12-11T06:54:39.259Z,51.70
2022-12-11T06:55:44.750Z,39.80
2022-12-11T06:56:47.545Z,34.75
2022-12-11T06:57:52.741Z,34.30
2022-12-11T06:58:57.279Z,37.20
2022-12-11T07:00:02.284Z,33.33
2022-12-11T07:01:05.513Z,35.90
2022-12-11T07:02:11.038Z,34.92
2022-12-11T07:03:13.918Z,33.75
2022-12-11T07:04:18.908Z,49.83
2022-12-11T07:05:21.212Z,42.22
2022-12-11T07:06:26.978Z,32.45
2022-12-11T07:07:31.850Z,30.58
2022-12-11T07:08:37.021Z,34.08
2022-12-11T07:09:40.999Z,32.60
2022-12-11T07:10:45.924Z,37.20
2022-12-11T07:11:50.565Z,32.15
2022-12-11T07:12:56.087Z,35.33
2022-12-11T07:13:59.182Z,30.73
2022-12-11T07:15:04.453Z,27.67
2022-12-11T07:16:11.228Z,34.05
2022-12-11T07:17:14.003Z,30.98
2022-12-11T07:18:18.883Z,35.63
2022-12-11T07:19:21.094Z,33.92
2022-12-11T07:20:26.178Z,39.47
2022-12-11T07:21:28.423Z,35.20
2022-12-11T07:22:35.954Z,34.15
2022-12-11T07:23:38.292Z,32.50
2022-12-11T07:24:43.172Z,29.17
2022-12-11T07:25:45.645Z,32.65
2022-12-11T07:26:51.045Z,30.63
2022-12-11T07:27:55.858Z,29.73
2022-12-11T07:29:01.113Z,30.10
2022-12-11T07:30:04.487Z,26.75
2022-12-11T07:31:17.877Z,26.40
2022-12-11T07:32:32.385Z,27.25
2022-12-11T07:33:58.227Z,27.67
2022-12-11T07:35:24.608Z,24.50
2022-12-11T07:36:44.058Z,24.15
2022-12-11T07:38:01.634Z,27.45
2022-12-11T07:39:30.286Z,22.77
2022-12-11T07:40:53.666Z,26.83
2022-12-11T07:42:28.123Z,23.95
2022-12-11T07:44:06.000Z,25.65
2022-12-11T07:45:44.339Z,24.65
2022-12-11T07:46:57.547Z,24.48
2022-12-11T07:48:41.408Z,23.75
2022-12-11T07:50:49.125Z,25.02
2022-12-11T07:54:50.942Z,24.42
2022-12-11T07:56:09.922Z,24.63
2022-12-11T07:57:41.442Z,25.20
2022-12-11T07:59:00.698Z,24.08
2022-12-11T08:00:07.569Z,22.67
2022-12-11T08:01:21.605Z,22.83
2022-12-11T08:02:37.041Z,27.63
2022-12-11T08:03:47.637Z,31.35
2022-12-11T08:05:05.395Z,24.83
2022-12-11T08:06:23.849Z,25.38
2022-12-11T08:07:32.681Z,22.63
2022-12-11T08:08:42.948Z,25.52
2022-12-11T08:09:57.602Z,25.60
2022-12-11T08:11:07.312Z,26.88
2022-12-11T08:12:22.085Z,25.08
2022-12-11T08:13:31.427Z,26.25
2022-12-11T08:14:42.161Z,28.20
2022-12-11T08:16:05.168Z,23.08
2022-12-11T08:17:19.080Z,26.90
2022-12-11T08:18:28.315Z,30.23
2022-12-11T08:20:18.293Z,26.27
2022-12-11T08:21:22.299Z,20.52
2022-12-11T08:22:32.820Z,23.30
2022-12-11T08:23:44.311Z,26.55
2022-12-11T08:25:09.658Z,25.15
2022-12-11T08:26:34.860Z,21.27
2022-12-11T08:27:46.231Z,26.25
2022-12-11T08:28:51.389Z,24.58
2022-12-11T08:30:04.426Z,23.92
2022-12-11T08:31:19.271Z,20.42
2022-12-11T08:32:32.966Z,25.40
2022-12-11T08:33:41.690Z,24.73
2022-12-11T08:35:03.550Z,22.40
2022-12-11T08:37:17.325Z,20.48
2022-12-11T08:38:26.087Z,20.88
2022-12-11T08:39:38.607Z,25.92
2022-12-11T08:40:48.957Z,20.77
2022-12-11T08:42:01.911Z,22.35
2022-12-11T08:43:07.015Z,21.85
2022-12-11T08:44:16.846Z,22.38
2022-12-11T08:45:19.399Z,19.45
2022-12-11T08:46:26.267Z,20.55
2022-12-11T08:47:28.602Z,23.42
2022-12-11T08:48:33.859Z,22.02
2022-12-11T08:49:38.809Z,20.73
2022-12-11T08:50:43.816Z,19.52
2022-12-11T08:51:48.833Z,20.25
2022-12-11T08:52:53.942Z,19.48
2022-12-11T08:54:00.373Z,24.55
2022-12-11T08:55:02.666Z,21.10
2022-12-11T08:56:34.259Z,23.55
2022-12-11T08:57:46.116Z,34.10
2022-12-11T08:59:13.007Z,25.85
2022-12-11T09:00:37.048Z,21.60
2022-12-11T09:01:49.697Z,22.58
2022-12-11T09:03:09.848Z,19.75
2022-12-11T09:04:32.182Z,21.13
2022-12-11T09:05:47.759Z,26.10
2022-12-11T09:07:03.959Z,24.15
2022-12-11T09:08:11.631Z,23.17
2022-12-11T09:09:39.567Z,22.02
2022-12-11T09:11:00.845Z,24.95
2022-12-11T09:12:25.247Z,22.02
2022-12-11T09:13:44.012Z,24.77
2022-12-11T09:15:09.165Z,24.73
2022-12-11T09:16:18.364Z,25.13
2022-12-11T09:17:32.634Z,24.98
2022-12-11T09:18:59.048Z,25.25
2022-12-11T09:20:23.064Z,23.55
2022-12-11T09:21:39.787Z,27.23
2022-12-11T09:22:50.459Z,24.40
2022-12-11T09:24:15.197Z,23.63
2022-12-11T09:25:30.263Z,27.45
2022-12-11T09:26:49.594Z,22.08
2022-12-11T09:28:21.118Z,23.40
2022-12-11T09:29:57.998Z,22.17
2022-12-11T09:31:24.385Z,24.23
2022-12-11T09:32:37.746Z,22.55
2022-12-11T09:33:46.403Z,23.95
2022-12-11T09:35:10.502Z,22.40
2022-12-11T09:36:17.753Z,26.38
2022-12-11T09:37:29.774Z,22.20
2022-12-11T09:38:45.045Z,23.40
2022-12-11T09:40:07.064Z,22.45
2022-12-11T09:42:04.846Z,22.67
2022-12-11T09:43:44.094Z,21.02
2022-12-11T09:45:17.515Z,20.95
2022-12-11T09:46:38.591Z,21.63
2022-12-11T09:47:56.783Z,23.92
2022-12-11T09:49:12.176Z,20.02
2022-12-11T09:50:22.287Z,23.65
2022-12-11T09:51:29.750Z,20.33
2022-12-11T09:52:38.231Z,20.75
2022-12-11T09:53:40.611Z,25.00
2022-12-11T09:54:52.427Z,20.40
2022-12-11T09:56:05.863Z,21.67
2022-12-11T09:57:18.491Z,20.83
2022-12-11T09:58:35.234Z,18.55
2022-12-11T09:59:48.575Z,24.55
2022-12-11T10:01:00.151Z,19.13
2022-12-11T10:03:27.237Z,21.52
2022-12-11T10:04:43.345Z,27.23
2022-12-11T10:05:53.973Z,20.92
2022-12-11T10:07:08.532Z,22.60
2022-12-11T10:08:15.274Z,20.58
2022-12-11T10:09:27.983Z,18.58
2022-12-11T10:10:43.513Z,18.75
2022-12-11T10:12:01.912Z,22.15
2022-12-11T10:13:15.875Z,22.30
2022-12-11T10:14:33.387Z,21.55
2022-12-11T10:15:43.732Z,18.55
2022-12-11T10:16:53.125Z,20.08
2022-12-11T10:18:04.941Z,17.80
2022-12-11T10:19:18.132Z,17.02
2022-12-11T10:20:31.352Z,19.20
2022-12-11T10:21:42.702Z,19.45
2022-12-11T10:22:48.727Z,19.70
2022-12-11T10:23:59.434Z,18.92
2022-12-11T10:25:11.236Z,20.75
2022-12-11T10:26:20.641Z,18.70
2022-12-11T10:27:26.525Z,20.13
2022-12-11T10:28:32.129Z,21.90
2022-12-11T10:29:37.009Z,24.52
2022-12-11T10:30:47.407Z,21.08
2022-12-11T10:31:56.452Z,22.90
2022-12-11T10:33:09.596Z,20.45
2022-12-11T10:34:13.863Z,20.02
2022-12-11T10:35:30.753Z,20.45
2022-12-11T10:36:40.046Z,18.75
2022-12-11T10:37:42.285Z,20.25
2022-12-11T10:38:49.376Z,22.00
2022-12-11T10:39:55.221Z,20.58
2022-12-11T10:41:02.310Z,22.13
2022-12-11T10:42:18.551Z,21.70
2022-12-11T10:43:23.767Z,23.80
2022-12-11T10:44:27.866Z,22.20
2022-12-11T10:45:35.321Z,23.38
2022-12-11T10:46:40.181Z,21.85
2022-12-11T10:47:42.818Z,24.15
2022-12-11T10:48:53.584Z,27.23
2022-12-11T10:50:00.759Z,22.85
2022-12-11T10:51:07.263Z,27.10
2022-12-11T10:52:23.874Z,27.95
2022-12-11T10:53:26.900Z,24.55
2022-12-11T10:54:39.053Z,20.35
2022-12-11T10:55:45.725Z,19.60
2022-12-11T10:56:52.593Z,18.60
2022-12-11T10:57:58.777Z,20.80
2022-12-11T10:59:05.336Z,19.98
2022-12-11T11:00:29.626Z,34.55
2022-12-11T11:01:37.169Z,24.00
2022-12-11T11:02:43.133Z,26.75
2022-12-11T11:03:58.198Z,28.15
2022-12-11T11:05:13.906Z,24.67
2022-12-11T11:06:19.231Z,23.58
2022-12-11T11:07:26.474Z,19.70
2022-12-11T11:08:37.280Z,19.92
2022-12-11T11:09:42.883Z,20.10
2022-12-11T11:10:53.535Z,19.20
2022-12-11T11:12:00.015Z,20.03
2022-12-11T11:13:07.976Z,19.73
2022-12-11T11:14:18.437Z,21.23
2022-12-11T11:15:26.338Z,20.45
2022-12-11T11:16:31.343Z,20.73
2022-12-11T11:17:54.500Z,29.95
2022-12-11T11:19:01.097Z,24.23
2022-12-11T11:20:16.037Z,24.05
2022-12-11T11:21:22.134Z,22.13
2022-12-11T11:22:27.913Z,21.60
2022-12-11T11:23:33.244Z,20.92
2022-12-11T11:24:38.704Z,19.65
2022-12-11T11:25:53.254Z,20.45
2022-12-11T11:27:13.213Z,17.73
2022-12-11T11:28:23.593Z,17.45
2022-12-11T11:29:33.192Z,16.98
2022-12-11T11:30:41.695Z,18.38
2022-12-11T11:31:46.726Z,20.13
2022-12-11T11:32:56.969Z,20.08
2022-12-11T11:34:04.922Z,19.42
2022-12-11T11:35:21.737Z,21.45
2022-12-11T11:36:29.346Z,21.88
2022-12-11T11:37:33.568Z,18.95
2022-12-11T11:38:42.516Z,23.63
2022-12-11T11:39:48.444Z,25.20
2022-12-11T11:41:04.839Z,20.38
2022-12-11T11:42:17.621Z,22.60
2022-12-11T11:43:35.768Z,26.25
2022-12-11T11:44:46.687Z,22.10
2022-12-11T11:45:55.348Z,21.10
2022-12-11T11:47:05.590Z,19.48
2022-12-11T11:48:28.248Z,22.92
2022-12-11T11:49:53.864Z,23.45
2022-12-11T11:51:00.784Z,22.63
2022-12-11T11:52:15.074Z,20.17
2022-12-11T11:53:22.917Z,23.67
2022-12-11T11:54:36.440Z,22.15
2022-12-11T11:55:48.736Z,23.15
2022-12-11T11:56:54.464Z,22.77
2022-12-11T11:58:05.932Z,22.73
2022-12-11T11:59:21.595Z,18.02
2022-12-11T12:00:33.266Z,20.15
2022-12-11T12:01:35.836Z,18.05
2022-12-11T12:02:40.848Z,18.25
2022-12-11T12:03:50.298Z,20.65
2022-12-11T12:04:55.357Z,21.83
2022-12-11T12:06:14.959Z,19.40
2022-12-11T12:07:36.018Z,19.25
2022-12-11T12:08:49.485Z,19.52
2022-12-11T12:10:02.450Z,20.30
2022-12-11T12:11:15.363Z,20.45
2022-12-11T12:12:34.264Z,18.45
2022-12-11T12:13:50.138Z,21.38
2022-12-11T12:15:10.140Z,22.80
2022-12-11T12:16:51.516Z,19.88
2022-12-11T12:17:56.556Z,19.38
2022-12-11T12:19:15.755Z,17.73
2022-12-11T12:20:27.979Z,18.00
2022-12-11T12:21:39.116Z,18.45
2022-12-11T12:23:03.538Z,19.58
2022-12-11T12:24:24.010Z,19.25
2022-12-11T12:25:34.619Z,19.75
2022-12-11T12:26:41.653Z,19.67
2022-12-11T12:27:52.593Z,19.40
2022-12-11T12:29:11.588Z,18.58
2022-12-11T12:30:22.070Z,19.20
2022-12-11T12:32:52.570Z,16.75
2022-12-11T12:34:13.546Z,21.35
2022-12-11T12:35:33.140Z,32.13
2022-12-11T12:36:48.208Z,15.45
2022-12-11T12:38:01.677Z,19.67
2022-12-11T12:39:19.893Z,16.48
2022-12-11T12:40:33.569Z,14.40
2022-12-11T12:41:46.988Z,12.82
2022-12-11T12:43:01.454Z,18.55
2022-12-11T12:44:20.406Z,16.35
2022-12-11T12:45:34.986Z,19.60
2022-12-11T12:46:50.054Z,15.90
2022-12-11T12:47:55.898Z,18.08
2022-12-11T12:49:00.028Z,17.15
2022-12-11T12:50:14.141Z,18.08
2022-12-11T12:51:17.759Z,17.77
2022-12-11T12:52:25.070Z,16.88
2022-12-11T12:53:34.369Z,17.80
2022-12-11T12:54:37.627Z,16.15
2022-12-11T12:55:42.947Z,15.45
2022-12-11T12:56:47.289Z,15.40
2022-12-11T12:57:55.057Z,20.13
2022-12-11T12:58:59.846Z,18.27
2022-12-11T13:00:03.332Z,16.42
2022-12-11T13:01:11.895Z,15.15
2022-12-11T13:02:17.181Z,15.52
2022-12-11T13:03:27.069Z,18.55
2022-12-11T13:04:58.157Z,15.85
2022-12-11T13:06:10.648Z,15.20
2022-12-11T13:07:23.477Z,17.27
2022-12-11T13:08:29.944Z,19.40
2022-12-11T13:09:35.197Z,17.85
2022-12-11T13:10:46.066Z,19.48
2022-12-11T13:11:53.875Z,17.98
2022-12-11T13:12:59.445Z,18.90
2022-12-11T13:14:04.655Z,18.33
2022-12-11T13:15:27.765Z,17.90
2022-12-11T13:16:39.678Z,15.45
2022-12-11T13:17:42.060Z,17.67
2022-12-11T13:18:48.422Z,18.77
2022-12-11T13:19:57.765Z,22.85
2022-12-11T13:21:06.057Z,20.95
2022-12-11T13:22:22.047Z,21.10
2022-12-11T13:23:33.119Z,22.83
2022-12-11T13:25:00.816Z,24.88
2022-12-11T13:26:12.676Z,17.95
2022-12-11T13:27:39.755Z,20.63
2022-12-11T13:29:11.361Z,19.27
2022-12-11T13:30:31.395Z,20.27
2022-12-11T13:31:51.603Z,23.17
2022-12-11T13:33:18.924Z,27.52
2022-12-11T13:34:29.852Z,22.30
2022-12-11T13:35:38.738Z,24.38
2022-12-11T13:36:50.853Z,25.02
2022-12-11T13:37:58.279Z,22.88
2022-12-11T13:39:11.295Z,26.67
2022-12-11T13:40:24.478Z,27.05
2022-12-11T13:41:31.257Z,23.25
2022-12-11T13:42:45.622Z,24.60
2022-12-11T13:43:53.867Z,23.70
2022-12-11T13:44:59.288Z,22.40
2022-12-11T13:46:03.717Z,19.85
2022-12-11T13:47:14.126Z,17.90
2022-12-11T13:48:26.259Z,20.10
2022-12-11T13:49:40.350Z,23.25
2022-12-11T13:50:47.325Z,20.73
2022-12-11T13:52:00.686Z,23.65
2022-12-11T13:53:05.230Z,23.42
2022-12-11T13:54:24.924Z,17.77
2022-12-11T13:55:32.669Z,19.23
2022-12-11T13:56:34.934Z,17.75
2022-12-11T13:57:48.823Z,19.33
2022-12-11T13:58:54.109Z,23.38
2022-12-11T14:00:00.563Z,21.50
2022-12-11T14:01:11.722Z,23.38
2022-12-11T14:02:21.342Z,22.25
2022-12-11T14:03:27.141Z,23.23
2022-12-11T14:04:30.296Z,22.02
2022-12-11T14:05:36.730Z,19.65
2022-12-11T14:06:40.332Z,18.50
2022-12-11T14:07:52.445Z,19.13
2022-12-11T14:08:58.849Z,19.38
2022-12-11T14:10:06.702Z,19.52
2022-12-11T14:11:11.801Z,18.50
2022-12-11T14:12:21.386Z,20.27
2022-12-11T14:13:29.909Z,21.67
2022-12-11T14:14:43.950Z,21.85
2022-12-11T14:15:52.127Z,23.52
2022-12-11T14:17:05.070Z,21.73
2022-12-11T14:18:38.417Z,18.08
2022-12-11T14:20:05.300Z,18.10
2022-12-11T14:21:10.295Z,19.05
2022-12-11T14:22:19.597Z,19.38
2022-12-11T14:23:28.754Z,20.10
2022-12-11T14:24:31.816Z,23.73
2022-12-11T14:25:36.943Z,22.40
2022-12-11T14:26:39.084Z,18.10
2022-12-11T14:27:50.892Z,18.30
2022-12-11T14:28:53.929Z,20.00
2022-12-11T14:29:59.000Z,21.20
2022-12-11T14:31:06.194Z,23.10
2022-12-11T14:32:11.592Z,18.13
2022-12-11T14:33:17.998Z,19.13
2022-12-11T14:34:28.409Z,19.33
2022-12-11T14:35:39.339Z,17.48
2022-12-11T14:36:46.616Z,20.48
2022-12-11T14:37:52.146Z,19.55
2022-12-11T14:39:06.521Z,19.35
2022-12-11T14:40:18.928Z,21.13
2022-12-11T14:41:27.522Z,18.88
2022-12-11T14:42:38.272Z,20.05
2022-12-11T14:43:48.870Z,25.63
2022-12-11T14:44:58.222Z,24.27
2022-12-11T14:46:08.047Z,18.38
2022-12-11T14:47:18.512Z,21.33
2022-12-11T14:48:27.214Z,34.80
2022-12-11T14:49:43.709Z,20.58
2022-12-11T14:50:50.359Z,22.60
2022-12-11T14:51:58.407Z,23.90
2022-12-11T14:53:08.138Z,21.58
2022-12-11T14:54:25.445Z,21.70
2022-12-11T14:55:30.876Z,21.17
2022-12-11T14:56:36.900Z,21.98
2022-12-11T14:57:46.656Z,21.02
2022-12-11T14:58:58.903Z,29.38
2022-12-11T15:00:05.904Z,28.70
2022-12-11T15:01:25.613Z,25.08
2022-12-11T15:02:33.629Z,23.60
2022-12-11T15:03:42.078Z,22.27
2022-12-11T15:04:47.375Z,23.60
2022-12-11T15:05:55.104Z,24.27
2022-12-11T15:07:01.643Z,19.50
2022-12-11T15:08:24.936Z,20.60
2022-12-11T15:09:41.099Z,19.80
2022-12-11T15:11:03.476Z,22.30
2022-12-11T15:12:14.692Z,20.90
2022-12-11T15:13:26.998Z,23.10
2022-12-11T15:14:33.666Z,17.20
2022-12-11T15:15:47.879Z,23.75
2022-12-11T15:16:54.864Z,22.63
2022-12-11T15:18:00.397Z,28.17
2022-12-11T15:19:03.043Z,25.80
2022-12-11T15:20:11.724Z,23.35
2022-12-11T15:21:17.145Z,23.17
2022-12-11T15:22:24.129Z,21.40
2022-12-11T15:23:29.571Z,19.45
2022-12-11T15:24:41.622Z,21.60
2022-12-11T15:25:54.396Z,22.00
2022-12-11T15:27:02.754Z,21.52
2022-12-11T15:28:08.369Z,18.88
2022-12-11T15:29:37.017Z,18.15
2022-12-11T15:30:39.446Z,18.13
2022-12-11T15:31:44.535Z,18.30
2022-12-11T15:32:49.621Z,17.95
2022-12-11T15:33:55.112Z,17.48